sensor_id;sensor_type;location;lat;lon;timestamp;P1;durP1;ratioP1;P2;durP2;ratioP2
34403;SDS011;23116;47.660;9.126;2023-12-20T00:00:38;3.72;;;3.10;;
34403;SDS011;23116;47.660;9.126;2023-12-20T00:03:25;2.55;;;2.33;;
34403;SDS011;23116;47.660;9.126;2023-12-20T00:06:12;3.00;;;2.70;;
34403;SDS011;23116;47.660;9.126;2023-12-20T00:09:00;3.03;;;2.40;;
34403;SDS011;23116;47.660;9.126;2023-12-20T00:11:47;3.58;;;2.80;;
34403;SDS011;23116;47.660;9.126;2023-12-20T00:14:35;3.78;;;3.22;;
34403;SDS011;23116;47.660;9.126;2023-12-20T00:17:23;2.83;;;2.63;;
34403;SDS011;23116;47.660;9.126;2023-12-20T00:20:10;3.30;;;3.00;;
34403;SDS011;23116;47.660;9.126;2023-12-20T00:22:58;2.42;;;2.22;;
34403;SDS011;23116;47.660;9.126;2023-12-20T00:25:45;2.88;;;2.63;;
34403;SDS011;23116;47.660;9.126;2023-12-20T00:28:35;3.50;;;2.55;;
34403;SDS011;23116;47.660;9.126;2023-12-20T00:31:23;2.05;;;1.90;;
34403;SDS011;23116;47.660;9.126;2023-12-20T00:34:10;2.80;;;2.55;;
34403;SDS011;23116;47.660;9.126;2023-12-20T00:36:58;2.65;;;2.45;;
34403;SDS011;23116;47.660;9.126;2023-12-20T00:39:45;3.70;;;2.80;;
34403;SDS011;23116;47.660;9.126;2023-12-20T00:42:33;3.30;;;2.88;;
34403;SDS011;23116;47.660;9.126;2023-12-20T00:45:21;3.15;;;2.85;;
34403;SDS011;23116;47.660;9.126;2023-12-20T00:48:08;2.88;;;2.67;;
34403;SDS011;23116;47.660;9.126;2023-12-20T00:50:56;2.78;;;2.53;;
34403;SDS011;23116;47.660;9.126;2023-12-20T00:53:43;2.78;;;2.58;;
34403;SDS011;23116;47.660;9.126;2023-12-20T00:56:30;3.40;;;3.10;;
34403;SDS011;23116;47.660;9.126;2023-12-20T00:59:16;2.45;;;2.25;;
34403;SDS011;23116;47.660;9.126;2023-12-20T01:02:03;3.05;;;2.40;;
34403;SDS011;23116;47.660;9.126;2023-12-20T01:04:50;2.50;;;2.10;;
34403;SDS011;23116;47.660;9.126;2023-12-20T01:07:37;2.38;;;2.17;;
34403;SDS011;23116;47.660;9.126;2023-12-20T01:10:23;3.28;;;2.97;;
34403;SDS011;23116;47.660;9.126;2023-12-20T01:13:13;3.40;;;2.80;;
34403;SDS011;23116;47.660;9.126;2023-12-20T01:16:00;3.20;;;2.90;;
34403;SDS011;23116;47.660;9.126;2023-12-20T01:18:48;3.58;;;3.17;;
34403;SDS011;23116;47.660;9.126;2023-12-20T01:21:35;2.67;;;2.42;;
34403;SDS011;23116;47.660;9.126;2023-12-20T01:24:23;3.28;;;2.95;;
34403;SDS011;23116;47.660;9.126;2023-12-20T01:27:10;3.97;;;3.17;;
34403;SDS011;23116;47.660;9.126;2023-12-20T01:29:58;2.92;;;2.63;;
34403;SDS011;23116;47.660;9.126;2023-12-20T01:32:45;3.38;;;3.08;;
34403;SDS011;23116;47.660;9.126;2023-12-20T01:35:33;4.22;;;3.50;;
34403;SDS011;23116;47.660;9.126;2023-12-20T01:38:20;3.63;;;3.30;;
34403;SDS011;23116;47.660;9.126;2023-12-20T01:41:07;3.45;;;2.97;;
34403;SDS011;23116;47.660;9.126;2023-12-20T01:43:55;4.20;;;3.13;;
34403;SDS011;23116;47.660;9.126;2023-12-20T01:46:42;4.20;;;3.40;;
34403;SDS011;23116;47.660;9.126;2023-12-20T01:49:30;3.40;;;3.10;;
34403;SDS011;23116;47.660;9.126;2023-12-20T01:52:19;3.30;;;3.00;;
34403;SDS011;23116;47.660;9.126;2023-12-20T01:55:06;3.85;;;3.20;;
34403;SDS011;23116;47.660;9.126;2023-12-20T01:57:58;3.20;;;2.90;;
34403;SDS011;23116;47.660;9.126;2023-12-20T02:00:46;4.00;;;3.40;;
34403;SDS011;23116;47.660;9.126;2023-12-20T02:03:34;3.45;;;3.15;;
34403;SDS011;23116;47.660;9.126;2023-12-20T02:06:22;3.70;;;3.30;;
34403;SDS011;23116;47.660;9.126;2023-12-20T02:09:13;4.90;;;4.18;;
34403;SDS011;23116;47.660;9.126;2023-12-20T02:12:02;4.03;;;3.63;;
34403;SDS011;23116;47.660;9.126;2023-12-20T02:14:50;4.43;;;4.03;;
34403;SDS011;23116;47.660;9.126;2023-12-20T02:17:39;5.97;;;3.83;;
34403;SDS011;23116;47.660;9.126;2023-12-20T02:20:26;5.93;;;4.40;;
34403;SDS011;23116;47.660;9.126;2023-12-20T02:23:14;5.15;;;4.63;;
34403;SDS011;23116;47.660;9.126;2023-12-20T02:26:02;4.43;;;4.03;;
34403;SDS011;23116;47.660;9.126;2023-12-20T02:28:51;3.63;;;3.28;;
34403;SDS011;23116;47.660;9.126;2023-12-20T02:31:39;4.45;;;4.05;;
34403;SDS011;23116;47.660;9.126;2023-12-20T02:34:27;4.15;;;3.67;;
34403;SDS011;23116;47.660;9.126;2023-12-20T02:37:15;4.35;;;3.67;;
34403;SDS011;23116;47.660;9.126;2023-12-20T02:40:02;4.10;;;3.70;;
34403;SDS011;23116;47.660;9.126;2023-12-20T02:42:50;4.30;;;3.47;;
34403;SDS011;23116;47.660;9.126;2023-12-20T02:45:37;3.60;;;3.30;;
34403;SDS011;23116;47.660;9.126;2023-12-20T02:48:25;4.68;;;3.67;;
34403;SDS011;23116;47.660;9.126;2023-12-20T02:51:12;5.20;;;3.75;;
34403;SDS011;23116;47.660;9.126;2023-12-20T02:54:00;4.68;;;4.28;;
34403;SDS011;23116;47.660;9.126;2023-12-20T02:56:47;4.38;;;3.97;;
34403;SDS011;23116;47.660;9.126;2023-12-20T02:59:35;4.93;;;3.75;;
34403;SDS011;23116;47.660;9.126;2023-12-20T03:02:22;4.32;;;3.92;;
34403;SDS011;23116;47.660;9.126;2023-12-20T03:05:09;4.18;;;3.78;;
34403;SDS011;23116;47.660;9.126;2023-12-20T03:07:57;3.95;;;3.55;;
34403;SDS011;23116;47.660;9.126;2023-12-20T03:10:44;3.53;;;3.22;;
34403;SDS011;23116;47.660;9.126;2023-12-20T03:13:32;3.47;;;3.17;;
34403;SDS011;23116;47.660;9.126;2023-12-20T03:16:19;3.75;;;3.35;;
34403;SDS011;23116;47.660;9.126;2023-12-20T03:19:07;4.30;;;3.72;;
34403;SDS011;23116;47.660;9.126;2023-12-20T03:21:54;4.28;;;3.70;;
34403;SDS011;23116;47.660;9.126;2023-12-20T03:24:41;3.97;;;3.38;;
34403;SDS011;23116;47.660;9.126;2023-12-20T03:27:29;4.35;;;3.95;;
34403;SDS011;23116;47.660;9.126;2023-12-20T03:30:16;4.13;;;3.75;;
34403;SDS011;23116;47.660;9.126;2023-12-20T03:33:04;4.65;;;3.90;;
34403;SDS011;23116;47.660;9.126;2023-12-20T03:35:52;4.22;;;3.83;;
34403;SDS011;23116;47.660;9.126;2023-12-20T03:38:40;4.35;;;3.30;;
34403;SDS011;23116;47.660;9.126;2023-12-20T03:41:27;4.28;;;3.65;;
34403;SDS011;23116;47.660;9.126;2023-12-20T03:44:15;5.55;;;3.50;;
34403;SDS011;23116;47.660;9.126;2023-12-20T03:47:02;3.55;;;3.25;;
34403;SDS011;23116;47.660;9.126;2023-12-20T03:49:50;4.32;;;3.92;;
34403;SDS011;23116;47.660;9.126;2023-12-20T03:52:38;4.07;;;3.67;;
34403;SDS011;23116;47.660;9.126;2023-12-20T03:55:25;3.70;;;3.40;;
34403;SDS011;23116;47.660;9.126;2023-12-20T03:58:13;4.32;;;3.92;;
34403;SDS011;23116;47.660;9.126;2023-12-20T04:01:00;5.78;;;4.15;;
34403;SDS011;23116;47.660;9.126;2023-12-20T04:03:48;3.97;;;3.53;;
34403;SDS011;23116;47.660;9.126;2023-12-20T04:06:35;4.65;;;3.85;;
34403;SDS011;23116;47.660;9.126;2023-12-20T04:09:23;4.80;;;3.88;;
34403;SDS011;23116;47.660;9.126;2023-12-20T04:12:10;3.80;;;3.50;;
34403;SDS011;23116;47.660;9.126;2023-12-20T04:14:58;4.03;;;3.65;;
34403;SDS011;23116;47.660;9.126;2023-12-20T04:17:45;3.95;;;3.20;;
34403;SDS011;23116;47.660;9.126;2023-12-20T04:20:33;3.13;;;2.92;;
34403;SDS011;23116;47.660;9.126;2023-12-20T04:23:20;3.78;;;3.47;;
34403;SDS011;23116;47.660;9.126;2023-12-20T04:26:10;5.07;;;3.67;;
34403;SDS011;23116;47.660;9.126;2023-12-20T04:28:57;4.45;;;4.05;;
34403;SDS011;23116;47.660;9.126;2023-12-20T04:31:45;4.10;;;3.70;;
34403;SDS011;23116;47.660;9.126;2023-12-20T04:34:32;4.57;;;3.65;;
34403;SDS011;23116;47.660;9.126;2023-12-20T04:37:19;3.85;;;3.47;;
34403;SDS011;23116;47.660;9.126;2023-12-20T04:40:07;4.47;;;3.95;;
34403;SDS011;23116;47.660;9.126;2023-12-20T04:42:55;4.05;;;3.65;;
34403;SDS011;23116;47.660;9.126;2023-12-20T04:45:42;4.10;;;3.70;;
34403;SDS011;23116;47.660;9.126;2023-12-20T04:48:30;4.18;;;3.78;;
34403;SDS011;23116;47.660;9.126;2023-12-20T04:51:17;3.60;;;3.30;;
34403;SDS011;23116;47.660;9.126;2023-12-20T04:54:05;4.30;;;3.90;;
34403;SDS011;23116;47.660;9.126;2023-12-20T04:56:52;3.88;;;3.47;;
34403;SDS011;23116;47.660;9.126;2023-12-20T04:59:40;3.97;;;3.60;;
34403;SDS011;23116;47.660;9.126;2023-12-20T05:02:27;3.97;;;3.67;;
34403;SDS011;23116;47.660;9.126;2023-12-20T05:05:15;4.00;;;3.60;;
34403;SDS011;23116;47.660;9.126;2023-12-20T05:08:03;4.03;;;3.72;;
34403;SDS011;23116;47.660;9.126;2023-12-20T05:10:52;3.67;;;3.35;;
34403;SDS011;23116;47.660;9.126;2023-12-20T05:13:40;3.70;;;3.40;;
34403;SDS011;23116;47.660;9.126;2023-12-20T05:16:28;3.58;;;3.28;;
34403;SDS011;23116;47.660;9.126;2023-12-20T05:19:15;3.92;;;3.63;;
34403;SDS011;23116;47.660;9.126;2023-12-20T05:22:03;3.25;;;2.95;;
34403;SDS011;23116;47.660;9.126;2023-12-20T05:24:50;3.60;;;3.30;;
34403;SDS011;23116;47.660;9.126;2023-12-20T05:27:38;3.63;;;3.33;;
34403;SDS011;23116;47.660;9.126;2023-12-20T05:30:25;3.60;;;3.30;;
34403;SDS011;23116;47.660;9.126;2023-12-20T05:33:12;3.58;;;3.28;;
34403;SDS011;23116;47.660;9.126;2023-12-20T05:36:00;3.63;;;3.33;;
34403;SDS011;23116;47.660;9.126;2023-12-20T05:38:47;4.65;;;2.92;;
34403;SDS011;23116;47.660;9.126;2023-12-20T05:41:35;3.55;;;3.25;;
34403;SDS011;23116;47.660;9.126;2023-12-20T05:44:22;3.47;;;3.17;;
34403;SDS011;23116;47.660;9.126;2023-12-20T05:47:09;3.42;;;3.13;;
34403;SDS011;23116;47.660;9.126;2023-12-20T05:49:57;3.10;;;2.88;;
34403;SDS011;23116;47.660;9.126;2023-12-20T05:52:44;3.60;;;3.30;;
34403;SDS011;23116;47.660;9.126;2023-12-20T05:55:32;3.25;;;2.95;;
34403;SDS011;23116;47.660;9.126;2023-12-20T05:58:19;3.15;;;2.95;;
34403;SDS011;23116;47.660;9.126;2023-12-20T06:01:07;3.17;;;2.97;;
34403;SDS011;23116;47.660;9.126;2023-12-20T06:03:54;3.17;;;2.88;;
34403;SDS011;23116;47.660;9.126;2023-12-20T06:06:42;3.10;;;2.80;;
34403;SDS011;23116;47.660;9.126;2023-12-20T06:09:30;3.53;;;3.22;;
34403;SDS011;23116;47.660;9.126;2023-12-20T06:12:17;3.65;;;3.35;;
34403;SDS011;23116;47.660;9.126;2023-12-20T06:15:04;3.53;;;3.22;;
34403;SDS011;23116;47.660;9.126;2023-12-20T06:17:52;3.33;;;3.08;;
34403;SDS011;23116;47.660;9.126;2023-12-20T06:20:40;3.10;;;2.80;;
34403;SDS011;23116;47.660;9.126;2023-12-20T06:23:27;2.97;;;2.78;;
34403;SDS011;23116;47.660;9.126;2023-12-20T06:26:15;3.70;;;3.40;;
34403;SDS011;23116;47.660;9.126;2023-12-20T06:29:02;3.67;;;3.38;;
34403;SDS011;23116;47.660;9.126;2023-12-20T06:31:49;4.40;;;4.00;;
34403;SDS011;23116;47.660;9.126;2023-12-20T06:34:37;3.33;;;3.03;;
34403;SDS011;23116;47.660;9.126;2023-12-20T06:37:24;4.28;;;3.40;;
34403;SDS011;23116;47.660;9.126;2023-12-20T06:40:12;3.40;;;3.10;;
34403;SDS011;23116;47.660;9.126;2023-12-20T06:42:59;3.38;;;3.08;;
34403;SDS011;23116;47.660;9.126;2023-12-20T06:45:47;3.55;;;3.25;;
34403;SDS011;23116;47.660;9.126;2023-12-20T06:48:34;3.45;;;3.15;;
34403;SDS011;23116;47.660;9.126;2023-12-20T06:51:21;3.00;;;2.70;;
34403;SDS011;23116;47.660;9.126;2023-12-20T06:54:10;2.65;;;2.45;;
34403;SDS011;23116;47.660;9.126;2023-12-20T06:56:58;3.70;;;3.40;;
34403;SDS011;23116;47.660;9.126;2023-12-20T06:59:45;3.38;;;3.08;;
34403;SDS011;23116;47.660;9.126;2023-12-20T07:02:33;3.65;;;3.35;;
34403;SDS011;23116;47.660;9.126;2023-12-20T07:05:20;3.88;;;3.50;;
34403;SDS011;23116;47.660;9.126;2023-12-20T07:08:08;3.90;;;3.60;;
34403;SDS011;23116;47.660;9.126;2023-12-20T07:10:56;3.60;;;3.28;;
34403;SDS011;23116;47.660;9.126;2023-12-20T07:13:44;3.45;;;3.15;;
34403;SDS011;23116;47.660;9.126;2023-12-20T07:16:31;3.85;;;3.53;;
34403;SDS011;23116;47.660;9.126;2023-12-20T07:19:18;3.60;;;3.30;;
34403;SDS011;23116;47.660;9.126;2023-12-20T07:22:06;3.33;;;3.03;;
34403;SDS011;23116;47.660;9.126;2023-12-20T07:24:54;3.28;;;2.97;;
34403;SDS011;23116;47.660;9.126;2023-12-20T07:27:41;3.55;;;3.25;;
34403;SDS011;23116;47.660;9.126;2023-12-20T07:30:29;3.50;;;3.20;;
34403;SDS011;23116;47.660;9.126;2023-12-20T07:33:16;3.65;;;3.35;;
34403;SDS011;23116;47.660;9.126;2023-12-20T07:36:04;3.17;;;2.95;;
34403;SDS011;23116;47.660;9.126;2023-12-20T07:38:51;3.33;;;3.03;;
34403;SDS011;23116;47.660;9.126;2023-12-20T07:41:40;3.08;;;2.88;;
34403;SDS011;23116;47.660;9.126;2023-12-20T07:44:27;3.70;;;3.00;;
34403;SDS011;23116;47.660;9.126;2023-12-20T07:47:14;2.97;;;2.78;;
34403;SDS011;23116;47.660;9.126;2023-12-20T07:50:06;2.97;;;2.78;;
34403;SDS011;23116;47.660;9.126;2023-12-20T07:52:54;3.17;;;2.63;;
34403;SDS011;23116;47.660;9.126;2023-12-20T07:55:41;2.55;;;2.35;;
34403;SDS011;23116;47.660;9.126;2023-12-20T07:58:29;2.80;;;2.60;;
34403;SDS011;23116;47.660;9.126;2023-12-20T08:01:16;3.03;;;2.67;;
34403;SDS011;23116;47.660;9.126;2023-12-20T08:04:04;2.63;;;2.42;;
34403;SDS011;23116;47.660;9.126;2023-12-20T08:06:51;2.50;;;2.30;;
34403;SDS011;23116;47.660;9.126;2023-12-20T08:09:39;2.70;;;2.50;;
34403;SDS011;23116;47.660;9.126;2023-12-20T08:12:26;2.67;;;2.47;;
34403;SDS011;23116;47.660;9.126;2023-12-20T08:15:14;2.80;;;2.60;;
34403;SDS011;23116;47.660;9.126;2023-12-20T08:18:01;4.88;;;3.15;;
34403;SDS011;23116;47.660;9.126;2023-12-20T08:20:49;3.05;;;2.85;;
34403;SDS011;23116;47.660;9.126;2023-12-20T08:23:39;2.63;;;2.42;;
34403;SDS011;23116;47.660;9.126;2023-12-20T08:26:26;3.22;;;2.92;;
34403;SDS011;23116;47.660;9.126;2023-12-20T08:29:14;2.58;;;2.38;;
34403;SDS011;23116;47.660;9.126;2023-12-20T08:32:01;3.15;;;2.58;;
34403;SDS011;23116;47.660;9.126;2023-12-20T08:34:50;3.28;;;2.97;;
34403;SDS011;23116;47.660;9.126;2023-12-20T08:37:37;3.20;;;2.92;;
34403;SDS011;23116;47.660;9.126;2023-12-20T08:40:24;2.65;;;2.45;;
34403;SDS011;23116;47.660;9.126;2023-12-20T08:43:12;2.85;;;2.65;;
34403;SDS011;23116;47.660;9.126;2023-12-20T08:45:59;2.20;;;2.00;;
34403;SDS011;23116;47.660;9.126;2023-12-20T08:48:47;2.20;;;2.00;;
34403;SDS011;23116;47.660;9.126;2023-12-20T08:51:35;2.22;;;2.03;;
34403;SDS011;23116;47.660;9.126;2023-12-20T08:54:25;2.60;;;2.40;;
34403;SDS011;23116;47.660;9.126;2023-12-20T08:57:12;2.42;;;2.05;;
34403;SDS011;23116;47.660;9.126;2023-12-20T09:00:00;1.90;;;1.80;;
34403;SDS011;23116;47.660;9.126;2023-12-20T09:02:48;2.38;;;2.17;;
34403;SDS011;23116;47.660;9.126;2023-12-20T09:05:36;1.98;;;1.77;;
34403;SDS011;23116;47.660;9.126;2023-12-20T09:08:23;2.10;;;1.95;;
34403;SDS011;23116;47.660;9.126;2023-12-20T09:11:11;1.88;;;1.77;;
34403;SDS011;23116;47.660;9.126;2023-12-20T09:13:59;2.05;;;1.90;;
34403;SDS011;23116;47.660;9.126;2023-12-20T09:16:46;1.90;;;1.80;;
34403;SDS011;23116;47.660;9.126;2023-12-20T09:19:36;1.92;;;1.83;;
34403;SDS011;23116;47.660;9.126;2023-12-20T09:22:24;1.70;;;1.60;;
34403;SDS011;23116;47.660;9.126;2023-12-20T09:25:12;1.90;;;1.80;;
34403;SDS011;23116;47.660;9.126;2023-12-20T09:28:01;2.03;;;1.83;;
34403;SDS011;23116;47.660;9.126;2023-12-20T09:30:47;1.80;;;1.70;;
34403;SDS011;23116;47.660;9.126;2023-12-20T09:33:34;1.65;;;1.52;;
34403;SDS011;23116;47.660;9.126;2023-12-20T09:36:20;1.73;;;1.63;;
34403;SDS011;23116;47.660;9.126;2023-12-20T09:39:07;1.60;;;1.50;;
34403;SDS011;23116;47.660;9.126;2023-12-20T09:44:49;1.70;;;1.60;;
34403;SDS011;23116;47.660;9.126;2023-12-20T09:47:36;1.88;;;1.67;;
34403;SDS011;23116;47.660;9.126;2023-12-20T09:50:23;1.90;;;1.80;;
34403;SDS011;23116;47.660;9.126;2023-12-20T09:53:11;2.33;;;2.10;;
34403;SDS011;23116;47.660;9.126;2023-12-20T09:56:02;1.92;;;1.83;;
34403;SDS011;23116;47.660;9.126;2023-12-20T09:58:50;2.10;;;2.00;;
34403;SDS011;23116;47.660;9.126;2023-12-20T10:01:40;1.95;;;1.83;;
34403;SDS011;23116;47.660;9.126;2023-12-20T10:04:28;1.60;;;1.50;;
34403;SDS011;23116;47.660;9.126;2023-12-20T10:07:20;1.50;;;1.40;;
34403;SDS011;23116;47.660;9.126;2023-12-20T10:10:07;1.40;;;1.30;;
34403;SDS011;23116;47.660;9.126;2023-12-20T10:13:05;3.25;;;1.50;;
34403;SDS011;23116;47.660;9.126;2023-12-20T10:15:55;1.40;;;1.30;;
34403;SDS011;23116;47.660;9.126;2023-12-20T10:18:42;1.30;;;1.20;;
34403;SDS011;23116;47.660;9.126;2023-12-20T10:21:32;1.60;;;1.50;;
34403;SDS011;23116;47.660;9.126;2023-12-20T10:24:19;1.48;;;1.38;;
34403;SDS011;23116;47.660;9.126;2023-12-20T10:27:07;1.60;;;1.50;;
34403;SDS011;23116;47.660;9.126;2023-12-20T10:29:55;1.63;;;1.50;;
34403;SDS011;23116;47.660;9.126;2023-12-20T10:32:45;1.40;;;1.30;;
34403;SDS011;23116;47.660;9.126;2023-12-20T10:35:33;1.33;;;1.23;;
34403;SDS011;23116;47.660;9.126;2023-12-20T10:38:22;1.30;;;1.20;;
34403;SDS011;23116;47.660;9.126;2023-12-20T10:41:10;1.30;;;1.23;;
34403;SDS011;23116;47.660;9.126;2023-12-20T10:44:00;1.50;;;1.40;;
34403;SDS011;23116;47.660;9.126;2023-12-20T10:46:50;1.27;;;1.17;;
34403;SDS011;23116;47.660;9.126;2023-12-20T10:49:43;1.30;;;1.20;;
34403;SDS011;23116;47.660;9.126;2023-12-20T10:52:30;1.48;;;1.38;;
34403;SDS011;23116;47.660;9.126;2023-12-20T10:55:19;1.30;;;1.20;;
34403;SDS011;23116;47.660;9.126;2023-12-20T10:58:10;1.20;;;1.13;;
34403;SDS011;23116;47.660;9.126;2023-12-20T11:01:01;0.82;;;0.82;;
34403;SDS011;23116;47.660;9.126;2023-12-20T11:03:50;1.33;;;1.23;;
34403;SDS011;23116;47.660;9.126;2023-12-20T11:06:53;1.17;;;1.08;;
34403;SDS011;23116;47.660;9.126;2023-12-20T11:10:10;1.17;;;1.10;;
34403;SDS011;23116;47.660;9.126;2023-12-20T11:13:27;1.02;;;0.95;;
34403;SDS011;23116;47.660;9.126;2023-12-20T11:16:21;0.95;;;0.73;;
34403;SDS011;23116;47.660;9.126;2023-12-20T11:19:10;0.88;;;0.88;;
34403;SDS011;23116;47.660;9.126;2023-12-20T11:22:01;0.85;;;0.85;;
34403;SDS011;23116;47.660;9.126;2023-12-20T11:24:51;17.55;;;2.33;;
34403;SDS011;23116;47.660;9.126;2023-12-20T11:27:43;5.70;;;2.07;;
34403;SDS011;23116;47.660;9.126;2023-12-20T11:30:54;74.45;;;6.57;;
34403;SDS011;23116;47.660;9.126;2023-12-20T11:33:46;21.17;;;2.85;;
34403;SDS011;23116;47.660;9.126;2023-12-20T11:36:34;10.27;;;1.83;;
34403;SDS011;23116;47.660;9.126;2023-12-20T11:39:21;1.58;;;0.85;;
34403;SDS011;23116;47.660;9.126;2023-12-20T11:42:08;1.70;;;0.80;;
34403;SDS011;23116;47.660;9.126;2023-12-20T11:44:57;0.88;;;0.77;;
34403;SDS011;23116;47.660;9.126;2023-12-20T11:47:45;0.63;;;0.63;;
34403;SDS011;23116;47.660;9.126;2023-12-20T11:50:35;1.00;;;0.60;;
34403;SDS011;23116;47.660;9.126;2023-12-20T11:53:22;0.80;;;0.80;;
34403;SDS011;23116;47.660;9.126;2023-12-20T11:56:10;30.00;;;3.75;;
34403;SDS011;23116;47.660;9.126;2023-12-20T11:58:58;10.88;;;2.50;;
34403;SDS011;23116;47.660;9.126;2023-12-20T12:01:52;5.20;;;1.45;;
34403;SDS011;23116;47.660;9.126;2023-12-20T12:04:45;44.88;;;5.53;;
34403;SDS011;23116;47.660;9.126;2023-12-20T12:07:38;6.85;;;1.80;;
34403;SDS011;23116;47.660;9.126;2023-12-20T12:10:25;3.00;;;1.17;;
34403;SDS011;23116;47.660;9.126;2023-12-20T12:13:14;1.00;;;0.70;;
34403;SDS011;23116;47.660;9.126;2023-12-20T12:16:01;7.38;;;1.52;;
34403;SDS011;23116;47.660;9.126;2023-12-20T12:18:58;9.70;;;1.42;;
34403;SDS011;23116;47.660;9.126;2023-12-20T12:21:45;12.80;;;2.00;;
34403;SDS011;23116;47.660;9.126;2023-12-20T12:24:33;26.77;;;4.00;;
34403;SDS011;23116;47.660;9.126;2023-12-20T12:27:20;7.53;;;1.63;;
34403;SDS011;23116;47.660;9.126;2023-12-20T12:30:10;1.88;;;0.98;;
34403;SDS011;23116;47.660;9.126;2023-12-20T12:32:58;0.93;;;0.70;;
34403;SDS011;23116;47.660;9.126;2023-12-20T12:35:46;0.68;;;0.68;;
34403;SDS011;23116;47.660;9.126;2023-12-20T12:38:33;0.75;;;0.60;;
34403;SDS011;23116;47.660;9.126;2023-12-20T12:41:21;0.80;;;0.68;;
34403;SDS011;23116;47.660;9.126;2023-12-20T12:44:08;0.50;;;0.50;;
34403;SDS011;23116;47.660;9.126;2023-12-20T12:46:55;1.10;;;0.85;;
34403;SDS011;23116;47.660;9.126;2023-12-20T12:49:43;1.52;;;0.88;;
34403;SDS011;23116;47.660;9.126;2023-12-20T12:52:31;0.70;;;0.70;;
34403;SDS011;23116;47.660;9.126;2023-12-20T12:55:18;0.70;;;0.70;;
34403;SDS011;23116;47.660;9.126;2023-12-20T12:58:06;20.85;;;4.07;;
34403;SDS011;23116;47.660;9.126;2023-12-20T13:00:53;91.75;;;10.07;;
34403;SDS011;23116;47.660;9.126;2023-12-20T13:03:40;9.32;;;2.03;;
34403;SDS011;23116;47.660;9.126;2023-12-20T13:06:28;1.73;;;1.48;;
34403;SDS011;23116;47.660;9.126;2023-12-20T13:09:15;18.42;;;2.88;;
34403;SDS011;23116;47.660;9.126;2023-12-20T13:12:05;42.05;;;4.38;;
34403;SDS011;23116;47.660;9.126;2023-12-20T13:14:53;25.02;;;3.35;;
34403;SDS011;23116;47.660;9.126;2023-12-20T13:17:40;1.73;;;1.30;;
34403;SDS011;23116;47.660;9.126;2023-12-20T13:20:28;2.08;;;1.10;;
34403;SDS011;23116;47.660;9.126;2023-12-20T13:23:15;7.60;;;1.73;;
34403;SDS011;23116;47.660;9.126;2023-12-20T13:26:06;73.80;;;9.25;;
34403;SDS011;23116;47.660;9.126;2023-12-20T13:28:54;22.42;;;4.03;;
34403;SDS011;23116;47.660;9.126;2023-12-20T13:31:41;9.48;;;2.65;;
34403;SDS011;23116;47.660;9.126;2023-12-20T13:34:29;1.02;;;0.98;;
34403;SDS011;23116;47.660;9.126;2023-12-20T13:37:16;2.80;;;0.85;;
34403;SDS011;23116;47.660;9.126;2023-12-20T13:40:04;16.45;;;2.60;;
34403;SDS011;23116;47.660;9.126;2023-12-20T13:42:52;2.50;;;1.55;;
34403;SDS011;23116;47.660;9.126;2023-12-20T13:45:40;1.00;;;0.88;;
34403;SDS011;23116;47.660;9.126;2023-12-20T13:48:27;1.38;;;1.05;;
34403;SDS011;23116;47.660;9.126;2023-12-20T13:51:15;1.80;;;1.30;;
34403;SDS011;23116;47.660;9.126;2023-12-20T13:54:03;0.63;;;0.63;;
34403;SDS011;23116;47.660;9.126;2023-12-20T13:56:51;0.75;;;0.75;;
34403;SDS011;23116;47.660;9.126;2023-12-20T13:59:38;1.00;;;0.73;;
34403;SDS011;23116;47.660;9.126;2023-12-20T14:02:25;0.63;;;0.60;;
34403;SDS011;23116;47.660;9.126;2023-12-20T14:05:13;0.60;;;0.60;;
34403;SDS011;23116;47.660;9.126;2023-12-20T14:08:03;0.98;;;0.80;;
34403;SDS011;23116;47.660;9.126;2023-12-20T14:10:51;0.70;;;0.70;;
34403;SDS011;23116;47.660;9.126;2023-12-20T14:13:39;0.82;;;0.57;;
34403;SDS011;23116;47.660;9.126;2023-12-20T14:16:26;0.60;;;0.60;;
34403;SDS011;23116;47.660;9.126;2023-12-20T14:19:14;0.68;;;0.68;;
34403;SDS011;23116;47.660;9.126;2023-12-20T14:22:02;0.98;;;0.98;;
34403;SDS011;23116;47.660;9.126;2023-12-20T14:24:49;0.70;;;0.70;;
34403;SDS011;23116;47.660;9.126;2023-12-20T14:27:37;1.35;;;0.90;;
34403;SDS011;23116;47.660;9.126;2023-12-20T14:30:26;1.13;;;1.02;;
34403;SDS011;23116;47.660;9.126;2023-12-20T14:33:13;0.75;;;0.75;;
34403;SDS011;23116;47.660;9.126;2023-12-20T14:36:01;2.40;;;0.80;;
34403;SDS011;23116;47.660;9.126;2023-12-20T14:38:50;1.20;;;1.00;;
34403;SDS011;23116;47.660;9.126;2023-12-20T14:41:38;3.97;;;1.13;;
34403;SDS011;23116;47.660;9.126;2023-12-20T14:44:25;2.45;;;0.90;;
34403;SDS011;23116;47.660;9.126;2023-12-20T14:47:13;1.17;;;0.85;;
34403;SDS011;23116;47.660;9.126;2023-12-20T14:50:04;1.33;;;1.10;;
34403;SDS011;23116;47.660;9.126;2023-12-20T14:52:52;1.10;;;0.90;;
34403;SDS011;23116;47.660;9.126;2023-12-20T14:55:40;1.27;;;1.00;;
34403;SDS011;23116;47.660;9.126;2023-12-20T14:58:28;4.13;;;1.58;;
34403;SDS011;23116;47.660;9.126;2023-12-20T15:01:16;5.70;;;2.20;;
34403;SDS011;23116;47.660;9.126;2023-12-20T15:04:07;56.13;;;6.25;;
34403;SDS011;23116;47.660;9.126;2023-12-20T15:06:55;19.08;;;4.13;;
34403;SDS011;23116;47.660;9.126;2023-12-20T15:09:43;21.92;;;3.22;;
34403;SDS011;23116;47.660;9.126;2023-12-20T15:12:34;20.58;;;3.20;;
34403;SDS011;23116;47.660;9.126;2023-12-20T15:15:21;4.65;;;2.15;;
34403;SDS011;23116;47.660;9.126;2023-12-20T15:18:09;10.60;;;2.30;;
34403;SDS011;23116;47.660;9.126;2023-12-20T15:20:56;6.50;;;1.63;;
34403;SDS011;23116;47.660;9.126;2023-12-20T15:23:45;16.58;;;3.53;;
34403;SDS011;23116;47.660;9.126;2023-12-20T15:26:38;6.03;;;2.20;;
34403;SDS011;23116;47.660;9.126;2023-12-20T15:29:25;10.13;;;2.17;;
34403;SDS011;23116;47.660;9.126;2023-12-20T15:32:13;6.28;;;1.60;;
34403;SDS011;23116;47.660;9.126;2023-12-20T15:35:01;2.60;;;2.00;;
34403;SDS011;23116;47.660;9.126;2023-12-20T15:37:49;19.90;;;2.63;;
34403;SDS011;23116;47.660;9.126;2023-12-20T15:40:37;6.38;;;1.77;;
34403;SDS011;23116;47.660;9.126;2023-12-20T15:43:24;42.50;;;5.50;;
34403;SDS011;23116;47.660;9.126;2023-12-20T15:46:12;6.47;;;2.42;;
34403;SDS011;23116;47.660;9.126;2023-12-20T15:49:00;4.78;;;1.77;;
34403;SDS011;23116;47.660;9.126;2023-12-20T15:51:47;3.17;;;1.52;;
34403;SDS011;23116;47.660;9.126;2023-12-20T15:54:35;3.80;;;1.20;;
34403;SDS011;23116;47.660;9.126;2023-12-20T15:57:24;1.80;;;1.30;;
34403;SDS011;23116;47.660;9.126;2023-12-20T16:00:12;3.90;;;1.67;;
34403;SDS011;23116;47.660;9.126;2023-12-20T16:03:00;2.83;;;1.30;;
34403;SDS011;23116;47.660;9.126;2023-12-20T16:05:48;2.35;;;1.10;;
34403;SDS011;23116;47.660;9.126;2023-12-20T16:08:35;2.30;;;1.17;;
34403;SDS011;23116;47.660;9.126;2023-12-20T16:11:23;3.45;;;1.30;;
34403;SDS011;23116;47.660;9.126;2023-12-20T16:14:11;3.38;;;1.27;;
34403;SDS011;23116;47.660;9.126;2023-12-20T16:17:02;1.67;;;0.93;;
34403;SDS011;23116;47.660;9.126;2023-12-20T16:19:50;1.45;;;0.90;;
34403;SDS011;23116;47.660;9.126;2023-12-20T16:22:39;1.40;;;0.95;;
34403;SDS011;23116;47.660;9.126;2023-12-20T16:25:26;2.60;;;1.00;;
34403;SDS011;23116;47.660;9.126;2023-12-20T16:28:13;1.45;;;0.77;;
34403;SDS011;23116;47.660;9.126;2023-12-20T16:31:01;3.15;;;1.00;;
34403;SDS011;23116;47.660;9.126;2023-12-20T16:33:49;2.42;;;1.00;;
34403;SDS011;23116;47.660;9.126;2023-12-20T16:36:48;1.17;;;0.90;;
34403;SDS011;23116;47.660;9.126;2023-12-20T16:39:37;1.30;;;0.95;;
34403;SDS011;23116;47.660;9.126;2023-12-20T16:42:25;1.83;;;0.73;;
34403;SDS011;23116;47.660;9.126;2023-12-20T16:45:12;1.35;;;1.00;;
34403;SDS011;23116;47.660;9.126;2023-12-20T16:47:59;2.60;;;1.02;;
34403;SDS011;23116;47.660;9.126;2023-12-20T16:50:47;0.70;;;0.68;;
34403;SDS011;23116;47.660;9.126;2023-12-20T16:53:36;1.65;;;0.60;;